createdAt,value
2018-12-05T00:01:14.125Z,1.90
2018-12-05T00:03:46.029Z,1.90
2018-12-05T00:06:16.512Z,1.90
2018-12-05T00:08:52.943Z,1.90
2018-12-05T00:11:24.723Z,1.90
2018-12-05T00:13:56.441Z,1.80
2018-12-05T00:16:27.403Z,1.80
2018-12-05T00:18:57.971Z,1.90
2018-12-05T00:21:28.408Z,1.90
2018-12-05T00:23:59.096Z,1.90
2018-12-05T00:26:30.189Z,1.90
2018-12-05T00:29:01.273Z,1.90
2018-12-05T00:31:32.402Z,1.90
2018-12-05T00:34:03.594Z,1.80
2018-12-05T00:36:34.696Z,1.80
2018-12-05T00:39:07.315Z,1.80
2018-12-05T00:41:38.355Z,1.70
2018-12-05T00:44:09.137Z,1.70
2018-12-05T00:46:40.186Z,1.70
2018-12-05T00:49:11.148Z,1.70
2018-12-05T00:51:41.932Z,1.70
2018-12-05T00:54:13.447Z,1.70
2018-12-05T00:56:44.566Z,1.60
2018-12-05T00:59:16.603Z,1.60
2018-12-05T01:01:47.965Z,1.50
2018-12-05T01:04:18.615Z,1.50
2018-12-05T01:06:49.636Z,1.60
2018-12-05T01:09:21.601Z,1.60
2018-12-05T01:11:52.461Z,1.60
2018-12-05T01:14:24.334Z,1.50
2018-12-05T01:16:55.640Z,1.50
2018-12-05T01:19:27.823Z,1.50
2018-12-05T01:21:59.466Z,1.50
2018-12-05T01:24:30.862Z,1.50
2018-12-05T01:27:02.924Z,1.50
2018-12-05T01:29:34.507Z,1.40
2018-12-05T01:32:06.039Z,1.40
2018-12-05T01:34:38.443Z,1.40
2018-12-05T01:37:10.518Z,1.40
2018-12-05T01:39:42.811Z,1.40
2018-12-05T01:42:14.161Z,1.40
2018-12-05T01:44:45.195Z,1.30
2018-12-05T01:47:16.987Z,1.30
2018-12-05T01:49:48.852Z,1.30
2018-12-05T01:52:20.859Z,1.30
2018-12-05T01:54:53.130Z,1.30
2018-12-05T01:57:24.575Z,1.30
2018-12-05T01:59:56.049Z,1.30
2018-12-05T02:02:28.043Z,1.30
2018-12-05T02:04:59.687Z,1.30
2018-12-05T02:07:31.362Z,1.30
2018-12-05T02:10:02.929Z,1.30
2018-12-05T02:12:33.475Z,1.20
2018-12-05T02:15:04.994Z,1.20
2018-12-05T02:17:36.828Z,1.20
2018-12-05T02:20:08.474Z,1.20
2018-12-05T02:22:39.931Z,1.20
2018-12-05T02:25:11.189Z,1.30
2018-12-05T02:27:43.123Z,1.30
2018-12-05T02:30:14.343Z,1.30
2018-12-05T02:32:45.717Z,1.30
2018-12-05T02:35:18.278Z,1.30
2018-12-05T02:37:48.862Z,1.30
2018-12-05T02:40:20.099Z,1.20
2018-12-05T02:42:50.843Z,1.30
2018-12-05T02:45:22.518Z,1.20
2018-12-05T02:47:53.718Z,1.20
2018-12-05T02:50:24.472Z,1.20
2018-12-05T02:52:55.242Z,1.20
2018-12-05T02:55:26.494Z,1.20
2018-12-05T02:57:57.606Z,1.20
2018-12-05T03:00:29.249Z,1.30
2018-12-05T03:03:00.300Z,1.30
2018-12-05T03:05:31.719Z,1.20
2018-12-05T03:08:03.407Z,1.10
2018-12-05T03:10:34.801Z,1.10
2018-12-05T03:13:06.012Z,1.20
2018-12-05T03:15:38.594Z,1.10
2018-12-05T03:18:10.119Z,1.10
2018-12-05T03:20:41.685Z,1.10
2018-12-05T03:23:12.920Z,1.10
2018-12-05T03:25:44.801Z,1.10
2018-12-05T03:28:15.879Z,1.10
2018-12-05T03:30:47.757Z,1.10
2018-12-05T03:33:19.602Z,1.10
2018-12-05T03:35:51.114Z,1.10
2018-12-05T03:38:22.713Z,1.10
2018-12-05T03:40:53.835Z,1.10
2018-12-05T03:43:24.569Z,1.00
2018-12-05T03:45:55.352Z,1.10
2018-12-05T03:48:27.314Z,1.10
2018-12-05T03:50:58.989Z,1.10
2018-12-05T03:53:30.158Z,1.10
2018-12-05T03:56:01.641Z,1.00
2018-12-05T03:58:32.515Z,1.00
2018-12-05T04:01:04.560Z,1.00
2018-12-05T04:03:36.397Z,1.00
2018-12-05T04:06:07.228Z,1.00
2018-12-05T04:08:38.444Z,1.10
2018-12-05T04:11:10.213Z,1.10
2018-12-05T04:13:41.906Z,1.00
2018-12-05T04:16:13.407Z,1.00
2018-12-05T04:18:45.293Z,1.00
2018-12-05T04:21:17.080Z,1.00
2018-12-05T04:23:49.265Z,0.90
2018-12-05T04:26:20.565Z,0.90
2018-12-05T04:28:52.831Z,1.00
2018-12-05T04:31:24.665Z,1.00
2018-12-05T04:33:56.171Z,1.00
2018-12-05T04:36:27.918Z,1.00
2018-12-05T04:38:59.966Z,0.90
2018-12-05T04:41:31.241Z,0.80
2018-12-05T04:44:02.221Z,0.90
2018-12-05T04:46:34.653Z,0.90
2018-12-05T04:49:06.437Z,0.90
2018-12-05T04:51:37.825Z,0.80
2018-12-05T04:54:09.109Z,0.80
2018-12-05T04:56:40.188Z,0.70
2018-12-05T04:59:12.263Z,0.70
2018-12-05T05:01:43.778Z,0.70
2018-12-05T05:04:14.798Z,0.70
2018-12-05T05:06:46.522Z,0.70
2018-12-05T05:09:17.902Z,0.70
2018-12-05T05:11:49.642Z,0.70
2018-12-05T05:14:21.363Z,0.80
2018-12-05T05:16:52.876Z,0.80
2018-12-05T05:19:24.788Z,0.80
2018-12-05T05:21:56.297Z,0.80
2018-12-05T05:24:28.262Z,0.80
2018-12-05T05:27:00.881Z,0.80
2018-12-05T05:29:32.203Z,0.90
2018-12-05T05:32:03.991Z,0.90
2018-12-05T05:34:35.613Z,0.90
2018-12-05T05:37:07.585Z,0.80
2018-12-05T05:39:38.926Z,0.80
2018-12-05T05:42:10.303Z,0.90
2018-12-05T05:44:42.180Z,0.90
2018-12-05T05:47:13.242Z,0.90
2018-12-05T05:49:45.413Z,0.90
2018-12-05T05:52:17.011Z,0.80
2018-12-05T05:54:48.364Z,0.80
2018-12-05T05:57:19.569Z,0.90
2018-12-05T05:59:50.613Z,0.90
2018-12-05T06:02:21.741Z,0.90
2018-12-05T06:04:52.892Z,0.80
2018-12-05T06:07:24.080Z,0.80
2018-12-05T06:09:55.601Z,0.80
2018-12-05T06:12:26.051Z,0.80
2018-12-05T06:14:57.047Z,0.80
2018-12-05T06:17:28.409Z,0.80
2018-12-05T06:19:59.233Z,0.80
2018-12-05T06:22:31.519Z,0.80
2018-12-05T06:25:03.137Z,0.80
2018-12-05T06:27:34.530Z,0.80
2018-12-05T06:30:07.724Z,0.80
2018-12-05T06:32:38.197Z,0.80
2018-12-05T06:35:09.925Z,0.80
2018-12-05T06:37:41.274Z,0.80
2018-12-05T06:40:12.129Z,0.80
2018-12-05T06:42:43.679Z,0.80
2018-12-05T06:45:14.745Z,0.90
2018-12-05T06:47:46.322Z,0.90
2018-12-05T06:50:18.609Z,0.90
2018-12-05T06:52:50.819Z,0.90
2018-12-05T06:55:22.654Z,0.90
2018-12-05T06:57:53.736Z,1.00
2018-12-05T07:00:25.219Z,1.00
2018-12-05T07:02:56.723Z,1.10
2018-12-05T07:05:27.595Z,1.10
2018-12-05T07:07:58.786Z,1.20
2018-12-05T07:10:29.400Z,1.20
2018-12-05T07:13:00.140Z,1.30
2018-12-05T07:15:31.526Z,1.30
2018-12-05T07:18:02.617Z,1.50
2018-12-05T07:20:33.317Z,1.60
2018-12-05T07:23:04.851Z,1.70
2018-12-05T07:25:35.793Z,1.80
2018-12-05T07:28:07.930Z,1.80
2018-12-05T07:30:39.129Z,1.90
2018-12-05T07:33:10.171Z,2.00
2018-12-05T07:35:41.632Z,2.00
2018-12-05T07:38:19.188Z,2.10
2018-12-05T07:40:45.642Z,2.30
2018-12-05T07:43:16.654Z,2.40
2018-12-05T07:45:47.962Z,2.60
2018-12-05T07:48:19.033Z,2.70
2018-12-05T07:55:56.034Z,3.20
2018-12-05T07:58:27.312Z,3.80
2018-12-05T08:00:57.800Z,4.50
2018-12-05T08:03:29.758Z,5.50
2018-12-05T08:06:01.322Z,6.50
2018-12-05T08:08:33.232Z,7.30
2018-12-05T08:11:04.584Z,8.10
2018-12-05T08:13:36.238Z,8.20
2018-12-05T08:16:09.566Z,8.30
2018-12-05T08:18:40.828Z,8.90
2018-12-05T08:21:12.856Z,8.90
2018-12-05T08:23:44.538Z,9.40
2018-12-05T08:26:15.898Z,9.80
2018-12-05T08:28:47.763Z,10.00
2018-12-05T08:31:18.773Z,10.60
2018-12-05T08:33:49.977Z,10.70
2018-12-05T08:36:20.532Z,10.90
2018-12-05T08:38:52.414Z,11.50
2018-12-05T08:41:23.543Z,12.00
2018-12-05T08:43:54.589Z,12.30
2018-12-05T08:46:25.998Z,12.50
2018-12-05T08:48:56.836Z,13.20
2018-12-05T08:51:28.204Z,13.80
2018-12-05T08:53:59.912Z,13.90
2018-12-05T08:56:30.870Z,13.60
2018-12-05T08:59:01.886Z,13.50
2018-12-05T09:01:32.575Z,13.50
2018-12-05T09:04:03.554Z,13.70
2018-12-05T09:06:34.598Z,14.20
2018-12-05T09:09:05.798Z,14.40
2018-12-05T09:11:36.332Z,14.40
2018-12-05T09:14:07.009Z,14.50
2018-12-05T09:16:38.578Z,14.80
2018-12-05T09:19:10.276Z,14.80
2018-12-05T09:21:40.635Z,15.40
2018-12-05T09:24:12.068Z,15.60
2018-12-05T09:26:43.246Z,15.70
2018-12-05T09:29:14.318Z,15.70
2018-12-05T09:31:45.235Z,15.90
2018-12-05T09:34:16.107Z,15.90
2018-12-05T09:36:46.486Z,15.70
2018-12-05T09:39:17.098Z,15.90
2018-12-05T09:41:48.344Z,16.30
2018-12-05T09:44:18.694Z,15.60
2018-12-05T09:46:50.116Z,16.30
2018-12-05T09:49:20.944Z,17.20
2018-12-05T09:51:52.808Z,17.40
2018-12-05T09:54:24.284Z,16.80
2018-12-05T09:56:56.377Z,17.20
2018-12-05T09:59:27.370Z,17.40
2018-12-05T10:02:00.976Z,17.50
2018-12-05T10:04:32.085Z,17.00
2018-12-05T10:07:04.040Z,17.30
2018-12-05T10:09:35.254Z,17.50
2018-12-05T10:12:07.308Z,17.40
2018-12-05T10:14:38.504Z,17.10
2018-12-05T10:17:10.522Z,18.00
2018-12-05T10:19:41.189Z,17.90
2018-12-05T10:22:13.279Z,17.40
2018-12-05T10:24:44.130Z,17.70
2018-12-05T10:27:15.082Z,17.70
2018-12-05T10:29:46.957Z,17.80
2018-12-05T10:32:19.506Z,17.70
2018-12-05T10:34:51.373Z,17.80
2018-12-05T10:37:22.654Z,18.50
2018-12-05T10:39:54.405Z,18.40
2018-12-05T10:42:26.295Z,17.70
2018-12-05T10:44:57.778Z,18.20
2018-12-05T10:47:29.519Z,18.50
2018-12-05T10:50:00.843Z,18.70
2018-12-05T10:52:31.772Z,18.80
2018-12-05T10:55:02.757Z,18.80
2018-12-05T10:57:34.283Z,19.30
2018-12-05T11:00:09.311Z,19.00
2018-12-05T11:03:20.769Z,19.40
2018-12-05T11:05:57.083Z,19.20
2018-12-05T11:08:33.484Z,19.10
2018-12-05T11:11:10.486Z,18.50
2018-12-05T11:13:46.985Z,18.10
2018-12-05T11:16:53.654Z,18.50
2018-12-05T11:19:29.894Z,18.80
2018-12-05T11:22:05.921Z,19.70
2018-12-05T11:24:39.647Z,19.70
2018-12-05T11:27:11.229Z,20.20
2018-12-05T11:29:43.602Z,20.50
2018-12-05T11:32:15.522Z,20.90
2018-12-05T11:34:46.462Z,21.00
2018-12-05T11:37:17.492Z,20.40
2018-12-05T11:39:48.989Z,20.00
2018-12-05T11:42:20.871Z,19.60
2018-12-05T11:44:52.041Z,19.20
2018-12-05T11:47:22.948Z,19.20
2018-12-05T11:49:54.681Z,19.20
2018-12-05T11:52:26.316Z,18.90
2018-12-05T11:54:57.952Z,18.70
2018-12-05T11:57:29.813Z,18.80
2018-12-05T12:00:02.745Z,19.30
2018-12-05T12:02:34.402Z,19.20
2018-12-05T12:05:07.613Z,18.80
2018-12-05T12:07:39.435Z,19.40
2018-12-05T12:10:11.090Z,19.10
2018-12-05T12:12:48.843Z,19.20
2018-12-05T12:15:21.512Z,18.30
2018-12-05T12:17:52.384Z,18.00
2018-12-05T12:20:26.025Z,18.40
2018-12-05T12:22:58.409Z,18.40
2018-12-05T12:25:30.123Z,18.30
2018-12-05T12:28:01.394Z,18.40
2018-12-05T12:30:33.477Z,17.80
2018-12-05T12:33:05.477Z,18.20
2018-12-05T12:35:37.043Z,18.90
2018-12-05T12:38:09.010Z,18.90
2018-12-05T12:40:40.642Z,19.20
2018-12-05T12:43:12.422Z,18.90
2018-12-05T12:45:43.971Z,19.30
2018-12-05T12:48:15.455Z,19.50
2018-12-05T12:50:47.220Z,19.60
2018-12-05T12:53:18.157Z,19.60
2018-12-05T12:55:49.423Z,19.50
2018-12-05T12:58:21.086Z,19.70
2018-12-05T13:00:52.283Z,19.80
2018-12-05T13:03:22.898Z,19.30
2018-12-05T13:05:53.661Z,19.80
2018-12-05T13:08:24.911Z,19.80
2018-12-05T13:10:57.034Z,19.70
2018-12-05T13:13:28.510Z,20.20
2018-12-05T13:15:59.972Z,20.30
2018-12-05T13:18:31.024Z,19.40
2018-12-05T13:21:03.444Z,18.60
2018-12-05T13:23:35.693Z,18.20
2018-12-05T13:26:07.177Z,18.10
2018-12-05T13:28:39.147Z,18.30
2018-12-05T13:31:09.869Z,18.00
2018-12-05T13:33:41.208Z,17.40
2018-12-05T13:36:12.734Z,17.30
2018-12-05T13:38:43.700Z,16.90
2018-12-05T13:41:14.954Z,16.90
2018-12-05T13:43:46.199Z,16.60
2018-12-05T13:46:17.743Z,16.20
2018-12-05T13:48:49.197Z,15.40
2018-12-05T13:51:20.433Z,15.10
2018-12-05T13:53:51.751Z,14.90
2018-12-05T13:56:23.467Z,15.00
2018-12-05T13:58:55.349Z,14.80
2018-12-05T14:01:27.143Z,14.80
2018-12-05T14:03:58.969Z,14.70
2018-12-05T14:06:31.245Z,14.70
2018-12-05T14:09:02.148Z,14.30
2018-12-05T14:11:33.322Z,14.00
2018-12-05T14:14:05.138Z,14.00
2018-12-05T14:16:36.623Z,13.80
2018-12-05T14:19:08.343Z,13.20
2018-12-05T14:21:40.891Z,12.90
2018-12-05T14:24:12.516Z,12.60
2018-12-05T14:26:43.709Z,12.30
2018-12-05T14:29:14.399Z,12.20
2018-12-05T14:31:45.781Z,12.10
2018-12-05T14:34:17.442Z,11.90
2018-12-05T14:36:48.407Z,11.60
2018-12-05T14:39:19.035Z,11.40
2018-12-05T14:41:49.750Z,11.20
2018-12-05T14:44:20.551Z,10.70
2018-12-05T14:46:51.473Z,10.50
2018-12-05T14:49:22.442Z,10.10
2018-12-05T14:51:54.411Z,9.80
2018-12-05T14:54:25.202Z,9.60
2018-12-05T14:56:56.683Z,9.20
2018-12-05T14:59:28.121Z,9.10
2018-12-05T15:01:59.101Z,8.80
2018-12-05T15:04:30.754Z,8.50
2018-12-05T15:07:01.611Z,8.40
2018-12-05T15:09:32.442Z,8.40
2018-12-05T15:12:04.601Z,8.20
2018-12-05T15:14:36.212Z,8.20
2018-12-05T15:17:06.437Z,8.10
2018-12-05T15:19:38.352Z,7.80
2018-12-05T15:22:10.319Z,7.80
2018-12-05T15:24:41.385Z,7.90
2018-12-05T15:27:12.658Z,7.90
2018-12-05T15:29:43.791Z,8.00
2018-12-05T15:32:14.463Z,7.90
2018-12-05T15:34:45.004Z,7.90
2018-12-05T15:37:16.201Z,7.80
2018-12-05T15:39:47.253Z,7.60
2018-12-05T15:42:18.001Z,7.40
2018-12-05T15:44:48.996Z,7.20
2018-12-05T15:47:20.566Z,7.00
2018-12-05T15:49:51.885Z,6.90
2018-12-05T15:52:23.452Z,6.80
2018-12-05T15:54:55.018Z,6.80
2018-12-05T15:57:26.236Z,6.80
2018-12-05T15:59:57.512Z,6.70
2018-12-05T16:02:29.395Z,6.70
2018-12-05T16:05:01.413Z,6.70
2018-12-05T16:07:32.965Z,6.70
2018-12-05T16:10:04.545Z,6.70
2018-12-05T16:12:38.775Z,6.70
2018-12-05T16:15:10.053Z,6.60
2018-12-05T16:17:41.534Z,6.60
2018-12-05T16:20:13.156Z,6.40
2018-12-05T16:22:45.900Z,6.40
2018-12-05T16:25:17.257Z,6.30
2018-12-05T16:27:48.213Z,6.20
2018-12-05T16:30:19.870Z,6.10
2018-12-05T16:32:51.658Z,6.00
2018-12-05T16:35:23.320Z,5.90
2018-12-05T16:37:54.962Z,5.90
2018-12-05T16:40:26.255Z,5.90
2018-12-05T16:42:58.183Z,5.80
2018-12-05T16:45:29.646Z,5.70
2018-12-05T16:48:01.891Z,5.60
2018-12-05T16:50:34.238Z,5.50
2018-12-05T16:53:06.165Z,5.60
2018-12-05T16:55:38.642Z,5.50
2018-12-05T16:58:10.644Z,5.40
2018-12-05T17:00:44.450Z,5.40
2018-12-05T17:03:16.346Z,5.20
2018-12-05T17:05:49.325Z,5.10
2018-12-05T17:08:21.616Z,5.00
2018-12-05T17:10:54.898Z,5.00
2018-12-05T17:13:27.157Z,4.80
2018-12-05T17:15:58.478Z,4.70
2018-12-05T17:18:31.124Z,4.60
2018-12-05T17:21:03.879Z,4.60
2018-12-05T17:23:36.924Z,4.50
2018-12-05T17:26:09.527Z,4.40
2018-12-05T17:28:41.909Z,4.30
2018-12-05T17:31:14.846Z,4.20
2018-12-05T17:33:49.442Z,4.10
2018-12-05T17:36:22.241Z,4.00
2018-12-05T17:38:54.495Z,3.80
2018-12-05T17:41:26.850Z,3.80
2018-12-05T17:43:58.964Z,3.70
2018-12-05T17:46:31.886Z,3.80
2018-12-05T17:49:04.997Z,3.90
2018-12-05T17:51:37.737Z,3.90
2018-12-05T17:54:14.839Z,3.90
2018-12-05T17:56:44.601Z,3.90
2018-12-05T17:59:16.484Z,3.80
2018-12-05T18:01:49.327Z,3.80
2018-12-05T18:04:22.242Z,3.80
2018-12-05T18:06:55.084Z,3.60
2018-12-05T18:09:28.131Z,3.60
2018-12-05T18:11:59.904Z,3.70
2018-12-05T18:14:32.883Z,3.60
2018-12-05T18:17:05.006Z,3.60
2018-12-05T18:19:36.602Z,3.30
2018-12-05T18:22:09.686Z,3.30
2018-12-05T18:24:42.383Z,3.30
2018-12-05T18:27:14.783Z,3.30
2018-12-05T18:29:47.726Z,3.40
2018-12-05T18:32:20.728Z,3.40
2018-12-05T18:34:53.446Z,3.30
2018-12-05T18:37:26.587Z,3.20
2018-12-05T18:39:59.922Z,3.20
2018-12-05T18:42:32.228Z,3.30
2018-12-05T18:45:04.465Z,3.20
2018-12-05T18:47:37.710Z,3.20
2018-12-05T18:50:10.298Z,3.10
2018-12-05T18:52:43.322Z,3.00
2018-12-05T18:55:15.808Z,2.90
2018-12-05T18:57:47.540Z,2.90
2018-12-05T19:00:19.339Z,2.70
2018-12-05T19:02:51.282Z,2.80
2018-12-05T19:05:22.558Z,2.80
2018-12-05T19:07:55.386Z,2.80
2018-12-05T19:10:27.704Z,2.70
2018-12-05T19:13:01.066Z,2.60
2018-12-05T19:15:35.490Z,2.50
2018-12-05T19:18:07.920Z,2.50
2018-12-05T19:20:40.650Z,2.60
2018-12-05T19:23:13.934Z,2.60
2018-12-05T19:25:46.851Z,2.60
2018-12-05T19:28:20.061Z,2.60
2018-12-05T19:30:54.382Z,2.60
2018-12-05T19:33:28.266Z,2.50
2018-12-05T19:36:00.429Z,2.40
2018-12-05T19:38:34.087Z,2.30
2018-12-05T19:41:05.967Z,2.20
2018-12-05T19:43:38.286Z,2.20
2018-12-05T19:46:11.573Z,2.20
2018-12-05T19:48:44.897Z,2.20
2018-12-05T19:51:17.483Z,2.20
2018-12-05T19:53:49.963Z,2.30
2018-12-05T19:56:23.205Z,2.20
2018-12-05T19:58:56.605Z,2.20
2018-12-05T20:01:29.699Z,2.00
2018-12-05T20:04:01.377Z,1.90
2018-12-05T20:06:33.049Z,1.70
2018-12-05T20:09:06.183Z,1.80
2018-12-05T20:11:37.944Z,1.70
2018-12-05T20:14:13.139Z,1.80
2018-12-05T20:16:46.801Z,1.90
2018-12-05T20:19:21.089Z,1.90
2018-12-05T20:21:54.656Z,1.80
2018-12-05T20:24:27.182Z,1.70
2018-12-05T20:26:59.430Z,1.70
2018-12-05T20:29:30.658Z,1.70
2018-12-05T20:32:03.409Z,1.60
2018-12-05T20:34:34.855Z,1.50
2018-12-05T20:37:06.179Z,1.50
2018-12-05T20:39:39.327Z,1.40
2018-12-05T20:42:11.500Z,1.30
2018-12-05T20:44:43.399Z,1.40
2018-12-05T20:47:15.730Z,1.50
2018-12-05T20:49:49.092Z,1.40
2018-12-05T20:52:22.826Z,1.40
2018-12-05T20:54:56.010Z,1.40
2018-12-05T20:57:27.862Z,1.30
2018-12-05T20:59:59.743Z,1.30
2018-12-05T21:02:32.574Z,1.20
2018-12-05T21:05:05.540Z,1.20
2018-12-05T21:07:38.478Z,1.20
2018-12-05T21:10:10.740Z,1.10
2018-12-05T21:12:43.340Z,1.00
2018-12-05T21:15:15.734Z,0.90
2018-12-05T21:17:49.960Z,0.90
2018-12-05T21:20:22.502Z,0.80
2018-12-05T21:22:54.878Z,0.90
2018-12-05T21:25:27.342Z,0.80
2018-12-05T21:27:58.885Z,0.70
2018-12-05T21:30:30.930Z,0.70
2018-12-05T21:33:03.180Z,0.60
2018-12-05T21:35:36.221Z,0.70
2018-12-05T21:38:12.989Z,0.60
2018-12-05T21:40:45.892Z,0.50
2018-12-05T21:43:19.052Z,0.50
2018-12-05T21:45:51.501Z,0.50
2018-12-05T21:48:23.145Z,0.50
2018-12-05T21:50:54.816Z,0.40
2018-12-05T21:53:26.918Z,0.40
2018-12-05T21:55:58.903Z,0.50
2018-12-05T21:58:30.213Z,0.40
2018-12-05T22:01:01.491Z,0.50
2018-12-05T22:03:32.698Z,0.60
2018-12-05T22:06:04.055Z,0.60
2018-12-05T22:08:35.362Z,0.60
2018-12-05T22:11:06.736Z,0.60
2018-12-05T22:13:38.853Z,0.60
2018-12-05T22:16:11.658Z,0.60
2018-12-05T22:18:43.769Z,0.40
2018-12-05T22:21:15.699Z,0.40
2018-12-05T22:23:48.805Z,0.50
2018-12-05T22:26:20.475Z,0.50
2018-12-05T22:28:51.525Z,0.40
2018-12-05T22:31:24.249Z,0.50
2018-12-05T22:33:55.508Z,0.40
2018-12-05T22:36:27.440Z,0.40
2018-12-05T22:38:58.622Z,0.40
2018-12-05T22:41:30.120Z,0.50
2018-12-05T22:44:01.360Z,0.50
2018-12-05T22:46:33.287Z,0.60
2018-12-05T22:49:04.758Z,0.60
2018-12-05T22:51:35.843Z,0.60
2018-12-05T22:54:06.768Z,0.50
2018-12-05T22:56:37.646Z,0.50
2018-12-05T22:59:09.450Z,0.40
2018-12-05T23:01:41.127Z,0.30
2018-12-05T23:04:12.477Z,0.30
2018-12-05T23:06:44.139Z,0.30
2018-12-05T23:09:15.854Z,0.40
2018-12-05T23:11:47.440Z,0.40
2018-12-05T23:14:18.760Z,0.40
2018-12-05T23:16:50.072Z,0.40
2018-12-05T23:19:21.738Z,0.50
2018-12-05T23:21:54.011Z,0.60
2018-12-05T23:24:27.082Z,0.60
2018-12-05T23:26:58.006Z,0.60
2018-12-05T23:29:28.692Z,0.40
2018-12-05T23:31:59.432Z,0.40
2018-12-05T23:34:30.396Z,0.30
2018-12-05T23:37:01.907Z,0.20
2018-12-05T23:39:33.585Z,0.20
2018-12-05T23:42:05.964Z,0.30
2018-12-05T23:44:37.280Z,0.30
2018-12-05T23:47:08.272Z,0.20
2018-12-05T23:49:39.561Z,0.10
2018-12-05T23:52:10.868Z,0.10
2018-12-05T23:54:42.230Z,0.10
2018-12-05T23:57:13.167Z,0.10
2018-12-05T23:59:44.995Z,0.10
